sensor_id;sensor_type;location;lat;lon;timestamp;P1;durP1;ratioP1;P2;durP2;ratioP2
58512;SDS011;44302;47.914;10.642;2022-10-16T06:22:02;3.13;;;0.97;;
58512;SDS011;44302;47.914;10.642;2022-10-16T06:24:29;1.23;;;0.90;;
58512;SDS011;44302;47.914;10.642;2022-10-16T06:26:54;6.93;;;0.90;;
58512;SDS011;44302;47.914;10.642;2022-10-16T06:29:20;1.10;;;1.00;;
58512;SDS011;44302;47.914;10.642;2022-10-16T06:31:46;2.50;;;1.10;;
58512;SDS011;44302;47.914;10.642;2022-10-16T07:03:45;5.13;;;1.10;;
58512;SDS011;44302;47.914;10.642;2022-10-16T07:06:13;5.57;;;1.23;;
58512;SDS011;44302;47.914;10.642;2022-10-16T07:08:41;3.63;;;1.17;;
58512;SDS011;44302;47.914;10.642;2022-10-16T07:11:11;1.30;;;1.00;;
58512;SDS011;44302;47.914;10.642;2022-10-16T07:13:38;1.90;;;1.20;;
58512;SDS011;44302;47.914;10.642;2022-10-16T07:16:15;2.37;;;1.20;;
58512;SDS011;44302;47.914;10.642;2022-10-16T07:18:46;1.30;;;0.90;;
58512;SDS011;44302;47.914;10.642;2022-10-16T07:21:14;1.30;;;1.03;;
58512;SDS011;44302;47.914;10.642;2022-10-16T07:23:41;2.10;;;1.00;;
58512;SDS011;44302;47.914;10.642;2022-10-16T07:26:08;2.90;;;1.27;;
58512;SDS011;44302;47.914;10.642;2022-10-16T07:28:34;2.83;;;1.00;;
58512;SDS011;44302;47.914;10.642;2022-10-16T07:31:05;1.63;;;1.20;;
58512;SDS011;44302;47.914;10.642;2022-10-16T07:33:33;3.10;;;1.00;;
58512;SDS011;44302;47.914;10.642;2022-10-16T07:36:00;2.60;;;1.13;;
58512;SDS011;44302;47.914;10.642;2022-10-16T07:38:26;1.80;;;1.00;;
58512;SDS011;44302;47.914;10.642;2022-10-16T07:40:58;2.07;;;1.30;;
58512;SDS011;44302;47.914;10.642;2022-10-16T07:43:26;3.63;;;1.33;;
58512;SDS011;44302;47.914;10.642;2022-10-16T07:45:52;3.27;;;1.13;;
58512;SDS011;44302;47.914;10.642;2022-10-16T07:48:18;1.80;;;1.30;;
58512;SDS011;44302;47.914;10.642;2022-10-16T07:50:45;1.63;;;1.30;;
58512;SDS011;44302;47.914;10.642;2022-10-16T07:53:11;2.40;;;1.40;;
58512;SDS011;44302;47.914;10.642;2022-10-16T07:55:37;2.67;;;1.20;;
58512;SDS011;44302;47.914;10.642;2022-10-16T07:58:03;5.47;;;1.43;;
58512;SDS011;44302;47.914;10.642;2022-10-16T08:00:29;2.70;;;1.30;;
58512;SDS011;44302;47.914;10.642;2022-10-16T08:02:56;1.40;;;1.30;;
58512;SDS011;44302;47.914;10.642;2022-10-16T08:05:28;2.77;;;1.30;;
58512;SDS011;44302;47.914;10.642;2022-10-16T08:07:54;1.40;;;1.17;;
58512;SDS011;44302;47.914;10.642;2022-10-16T08:10:21;1.70;;;1.50;;
58512;SDS011;44302;47.914;10.642;2022-10-16T08:12:48;2.20;;;1.47;;
58512;SDS011;44302;47.914;10.642;2022-10-16T08:15:14;1.40;;;1.30;;
58512;SDS011;44302;47.914;10.642;2022-10-16T08:17:39;1.40;;;1.30;;
58512;SDS011;44302;47.914;10.642;2022-10-16T08:20:05;2.50;;;1.40;;
58512;SDS011;44302;47.914;10.642;2022-10-16T08:22:31;1.93;;;1.50;;
58512;SDS011;44302;47.914;10.642;2022-10-16T08:24:57;2.90;;;1.73;;
58512;SDS011;44302;47.914;10.642;2022-10-16T08:27:23;3.23;;;1.90;;
58512;SDS011;44302;47.914;10.642;2022-10-16T08:29:48;2.80;;;1.60;;
58512;SDS011;44302;47.914;10.642;2022-10-16T08:32:14;3.33;;;2.40;;
58512;SDS011;44302;47.914;10.642;2022-10-16T08:34:40;6.20;;;4.10;;
58512;SDS011;44302;47.914;10.642;2022-10-16T08:37:06;8.17;;;5.10;;
58512;SDS011;44302;47.914;10.642;2022-10-16T08:39:36;8.27;;;4.87;;
58512;SDS011;44302;47.914;10.642;2022-10-16T08:42:15;10.40;;;7.60;;
58512;SDS011;44302;47.914;10.642;2022-10-16T08:47:48;16.90;;;12.07;;
58512;SDS011;44302;47.914;10.642;2022-10-16T08:50:24;10.33;;;7.83;;
58512;SDS011;44302;47.914;10.642;2022-10-16T08:52:53;7.17;;;4.40;;
58512;SDS011;44302;47.914;10.642;2022-10-16T08:55:30;12.57;;;8.87;;
58512;SDS011;44302;47.914;10.642;2022-10-16T08:58:15;6.10;;;4.43;;
58512;SDS011;44302;47.914;10.642;2022-10-16T09:00:43;4.67;;;4.27;;
58512;SDS011;44302;47.914;10.642;2022-10-16T09:03:40;3.20;;;2.03;;
58512;SDS011;44302;47.914;10.642;2022-10-16T09:06:35;1.37;;;1.27;;
58512;SDS011;44302;47.914;10.642;2022-10-16T09:09:15;2.43;;;1.10;;
58512;SDS011;44302;47.914;10.642;2022-10-16T09:11:49;1.47;;;1.10;;
58512;SDS011;44302;47.914;10.642;2022-10-16T09:20:11;2.93;;;1.33;;
58512;SDS011;44302;47.914;10.642;2022-10-16T09:25:29;2.07;;;1.87;;
58512;SDS011;44302;47.914;10.642;2022-10-16T09:27:56;4.53;;;1.90;;
58512;SDS011;44302;47.914;10.642;2022-10-16T09:30:21;4.43;;;2.97;;
58512;SDS011;44302;47.914;10.642;2022-10-16T09:32:51;5.13;;;3.07;;
58512;SDS011;44302;47.914;10.642;2022-10-16T09:35:22;2.00;;;1.60;;
58512;SDS011;44302;47.914;10.642;2022-10-16T09:37:52;2.20;;;1.47;;
58512;SDS011;44302;47.914;10.642;2022-10-16T09:40:30;2.80;;;1.63;;
58512;SDS011;44302;47.914;10.642;2022-10-16T09:45:57;3.07;;;1.63;;
58512;SDS011;44302;47.914;10.642;2022-10-16T09:48:26;4.67;;;1.80;;
58512;SDS011;44302;47.914;10.642;2022-10-16T09:51:00;3.60;;;1.70;;
58512;SDS011;44302;47.914;10.642;2022-10-16T09:53:44;2.33;;;1.53;;
58512;SDS011;44302;47.914;10.642;2022-10-16T09:56:12;1.40;;;1.30;;
58512;SDS011;44302;47.914;10.642;2022-10-16T09:58:51;2.40;;;1.47;;
58512;SDS011;44302;47.914;10.642;2022-10-16T10:01:22;2.60;;;1.40;;
58512;SDS011;44302;47.914;10.642;2022-10-16T10:04:09;4.27;;;1.20;;
58512;SDS011;44302;47.914;10.642;2022-10-16T10:11:55;1.50;;;1.40;;
58512;SDS011;44302;47.914;10.642;2022-10-16T10:14:23;4.60;;;1.80;;
58512;SDS011;44302;47.914;10.642;2022-10-16T10:17:17;2.83;;;1.70;;
58512;SDS011;44302;47.914;10.642;2022-10-16T10:19:54;1.73;;;1.63;;
58512;SDS011;44302;47.914;10.642;2022-10-16T10:22:23;3.47;;;1.40;;
58512;SDS011;44302;47.914;10.642;2022-10-16T10:38:48;4.07;;;1.40;;
58512;SDS011;44302;47.914;10.642;2022-10-16T10:43:57;1.50;;;1.20;;
58512;SDS011;44302;47.914;10.642;2022-10-16T10:46:39;1.90;;;0.87;;
58512;SDS011;44302;47.914;10.642;2022-10-16T10:52:23;1.07;;;0.90;;
58512;SDS011;44302;47.914;10.642;2022-10-16T11:00:46;0.83;;;0.70;;
58512;SDS011;44302;47.914;10.642;2022-10-16T11:05:59;1.57;;;1.17;;
58512;SDS011;44302;47.914;10.642;2022-10-16T11:08:58;3.03;;;0.70;;
58512;SDS011;44302;47.914;10.642;2022-10-16T11:11:38;0.90;;;0.70;;
58512;SDS011;44302;47.914;10.642;2022-10-16T11:14:20;1.10;;;0.97;;
58512;SDS011;44302;47.914;10.642;2022-10-16T11:24:53;1.67;;;0.70;;
58512;SDS011;44302;47.914;10.642;2022-10-16T11:27:40;1.03;;;0.80;;
58512;SDS011;44302;47.914;10.642;2022-10-16T11:30:14;2.33;;;0.90;;
58512;SDS011;44302;47.914;10.642;2022-10-16T11:35:50;0.87;;;0.80;;
58512;SDS011;44302;47.914;10.642;2022-10-16T11:38:35;2.63;;;1.00;;
58512;SDS011;44302;47.914;10.642;2022-10-16T11:41:19;0.80;;;0.70;;
58512;SDS011;44302;47.914;10.642;2022-10-16T11:46:31;1.83;;;1.00;;
58512;SDS011;44302;47.914;10.642;2022-10-16T11:49:03;0.77;;;0.60;;
58512;SDS011;44302;47.914;10.642;2022-10-16T11:52:04;0.80;;;0.80;;
58512;SDS011;44302;47.914;10.642;2022-10-16T11:55:04;1.13;;;0.80;;
58512;SDS011;44302;47.914;10.642;2022-10-16T11:57:36;2.00;;;1.00;;
58512;SDS011;44302;47.914;10.642;2022-10-16T12:00:08;1.07;;;0.97;;
58512;SDS011;44302;47.914;10.642;2022-10-16T12:06:17;1.20;;;0.90;;
58512;SDS011;44302;47.914;10.642;2022-10-16T12:08:33;2.30;;;0.70;;
58512;SDS011;44302;47.914;10.642;2022-10-16T12:13:51;1.00;;;0.90;;
58512;SDS011;44302;47.914;10.642;2022-10-16T12:16:28;3.43;;;0.90;;
58512;SDS011;44302;47.914;10.642;2022-10-16T12:19:10;1.20;;;1.00;;
58512;SDS011;44302;47.914;10.642;2022-10-16T12:21:38;0.93;;;0.83;;
58512;SDS011;44302;47.914;10.642;2022-10-16T12:24:05;1.10;;;1.00;;
58512;SDS011;44302;47.914;10.642;2022-10-16T12:26:32;1.00;;;0.90;;
58512;SDS011;44302;47.914;10.642;2022-10-16T12:31:45;2.37;;;1.17;;
58512;SDS011;44302;47.914;10.642;2022-10-16T12:34:27;0.83;;;0.83;;
58512;SDS011;44302;47.914;10.642;2022-10-16T12:36:53;0.70;;;0.70;;
58512;SDS011;44302;47.914;10.642;2022-10-16T12:39:21;1.90;;;0.80;;
58512;SDS011;44302;47.914;10.642;2022-10-16T12:42:00;2.37;;;0.83;;
58512;SDS011;44302;47.914;10.642;2022-10-16T12:44:31;2.20;;;1.03;;
58512;SDS011;44302;47.914;10.642;2022-10-16T12:46:59;1.90;;;0.90;;
58512;SDS011;44302;47.914;10.642;2022-10-16T12:52:00;1.03;;;0.80;;
58512;SDS011;44302;47.914;10.642;2022-10-16T12:54:30;1.07;;;0.90;;
58512;SDS011;44302;47.914;10.642;2022-10-16T12:59:57;1.37;;;0.80;;
58512;SDS011;44302;47.914;10.642;2022-10-16T13:16:43;2.50;;;1.00;;
58512;SDS011;44302;47.914;10.642;2022-10-16T13:20:02;1.20;;;1.10;;
58512;SDS011;44302;47.914;10.642;2022-10-16T13:22:30;1.87;;;1.10;;
58512;SDS011;44302;47.914;10.642;2022-10-16T13:25:14;1.00;;;1.00;;
58512;SDS011;44302;47.914;10.642;2022-10-16T13:30:25;1.30;;;1.00;;
58512;SDS011;44302;47.914;10.642;2022-10-16T13:35:32;1.73;;;0.90;;
58512;SDS011;44302;47.914;10.642;2022-10-16T13:38:15;0.93;;;0.90;;
58512;SDS011;44302;47.914;10.642;2022-10-16T13:45:59;1.43;;;1.20;;
58512;SDS011;44302;47.914;10.642;2022-10-16T13:48:30;1.37;;;0.90;;
58512;SDS011;44302;47.914;10.642;2022-10-16T13:51:11;3.17;;;1.10;;
58512;SDS011;44302;47.914;10.642;2022-10-16T13:53:41;1.30;;;0.80;;
58512;SDS011;44302;47.914;10.642;2022-10-16T13:56:15;2.83;;;0.90;;
58512;SDS011;44302;47.914;10.642;2022-10-16T13:58:42;2.00;;;0.87;;
58512;SDS011;44302;47.914;10.642;2022-10-16T14:01:51;2.90;;;0.90;;
58512;SDS011;44302;47.914;10.642;2022-10-16T14:04:08;1.57;;;0.80;;
58512;SDS011;44302;47.914;10.642;2022-10-16T14:06:43;0.90;;;0.80;;
58512;SDS011;44302;47.914;10.642;2022-10-16T14:09:20;5.07;;;1.47;;
58512;SDS011;44302;47.914;10.642;2022-10-16T14:11:53;1.37;;;0.90;;
58512;SDS011;44302;47.914;10.642;2022-10-16T14:14:19;1.10;;;0.80;;
58512;SDS011;44302;47.914;10.642;2022-10-16T14:16:46;1.53;;;0.90;;
58512;SDS011;44302;47.914;10.642;2022-10-16T14:19:15;3.77;;;0.80;;
58512;SDS011;44302;47.914;10.642;2022-10-16T14:21:43;2.30;;;0.70;;
58512;SDS011;44302;47.914;10.642;2022-10-16T14:24:12;4.43;;;0.97;;
58512;SDS011;44302;47.914;10.642;2022-10-16T14:26:47;1.03;;;0.87;;
58512;SDS011;44302;47.914;10.642;2022-10-16T14:29:15;1.00;;;0.80;;
58512;SDS011;44302;47.914;10.642;2022-10-16T14:31:54;1.20;;;1.10;;
58512;SDS011;44302;47.914;10.642;2022-10-16T14:34:38;3.90;;;1.13;;
58512;SDS011;44302;47.914;10.642;2022-10-16T14:37:06;2.40;;;0.97;;
58512;SDS011;44302;47.914;10.642;2022-10-16T14:39:51;2.50;;;0.90;;
58512;SDS011;44302;47.914;10.642;2022-10-16T14:42:17;2.70;;;1.03;;
58512;SDS011;44302;47.914;10.642;2022-10-16T14:44:44;1.30;;;0.83;;
58512;SDS011;44302;47.914;10.642;2022-10-16T14:47:16;2.00;;;1.10;;
58512;SDS011;44302;47.914;10.642;2022-10-16T14:49:47;1.90;;;1.10;;
58512;SDS011;44302;47.914;10.642;2022-10-16T14:52:13;2.43;;;1.30;;
58512;SDS011;44302;47.914;10.642;2022-10-16T14:54:39;1.40;;;1.00;;
58512;SDS011;44302;47.914;10.642;2022-10-16T14:57:05;2.90;;;0.90;;
58512;SDS011;44302;47.914;10.642;2022-10-16T14:59:43;1.10;;;1.00;;
58512;SDS011;44302;47.914;10.642;2022-10-16T15:05:23;6.43;;;1.57;;
58512;SDS011;44302;47.914;10.642;2022-10-16T15:07:49;3.10;;;1.20;;
58512;SDS011;44302;47.914;10.642;2022-10-16T15:10:16;6.10;;;1.80;;
58512;SDS011;44302;47.914;10.642;2022-10-16T15:12:43;2.50;;;1.23;;
58512;SDS011;44302;47.914;10.642;2022-10-16T15:15:54;4.87;;;1.60;;
58512;SDS011;44302;47.914;10.642;2022-10-16T15:18:07;8.47;;;1.93;;
58512;SDS011;44302;47.914;10.642;2022-10-16T15:20:34;9.10;;;2.43;;
58512;SDS011;44302;47.914;10.642;2022-10-16T15:23:02;11.80;;;2.20;;
58512;SDS011;44302;47.914;10.642;2022-10-16T15:25:39;17.07;;;2.87;;
58512;SDS011;44302;47.914;10.642;2022-10-16T15:28:08;18.23;;;3.83;;
58512;SDS011;44302;47.914;10.642;2022-10-16T15:30:35;10.63;;;2.23;;
58512;SDS011;44302;47.914;10.642;2022-10-16T15:33:02;12.03;;;2.70;;
58512;SDS011;44302;47.914;10.642;2022-10-16T15:35:29;3.87;;;2.33;;
58512;SDS011;44302;47.914;10.642;2022-10-16T15:37:56;8.10;;;2.90;;
58512;SDS011;44302;47.914;10.642;2022-10-16T15:40:22;8.10;;;2.17;;
58512;SDS011;44302;47.914;10.642;2022-10-16T15:42:48;9.03;;;2.73;;
58512;SDS011;44302;47.914;10.642;2022-10-16T15:45:13;5.57;;;2.20;;
58512;SDS011;44302;47.914;10.642;2022-10-16T15:47:40;5.87;;;2.37;;
58512;SDS011;44302;47.914;10.642;2022-10-16T15:50:08;6.90;;;3.07;;
58512;SDS011;44302;47.914;10.642;2022-10-16T15:52:36;17.17;;;3.50;;
58512;SDS011;44302;47.914;10.642;2022-10-16T15:55:06;8.83;;;2.33;;
58512;SDS011;44302;47.914;10.642;2022-10-16T15:57:36;19.63;;;3.50;;
58512;SDS011;44302;47.914;10.642;2022-10-16T16:00:06;14.27;;;2.87;;
58512;SDS011;44302;47.914;10.642;2022-10-16T16:02:33;12.63;;;2.70;;
58512;SDS011;44302;47.914;10.642;2022-10-16T16:04:58;16.13;;;3.63;;
58512;SDS011;44302;47.914;10.642;2022-10-16T16:07:24;7.73;;;2.67;;
58512;SDS011;44302;47.914;10.642;2022-10-16T16:09:50;6.43;;;2.57;;
58512;SDS011;44302;47.914;10.642;2022-10-16T16:12:15;14.63;;;2.40;;
58512;SDS011;44302;47.914;10.642;2022-10-16T16:14:41;9.77;;;2.50;;
58512;SDS011;44302;47.914;10.642;2022-10-16T16:17:07;22.87;;;3.97;;
58512;SDS011;44302;47.914;10.642;2022-10-16T16:19:33;12.00;;;4.00;;
58512;SDS011;44302;47.914;10.642;2022-10-16T16:21:58;9.60;;;4.53;;
58512;SDS011;44302;47.914;10.642;2022-10-16T16:24:24;15.13;;;5.30;;
58512;SDS011;44302;47.914;10.642;2022-10-16T16:26:50;7.77;;;3.83;;
58512;SDS011;44302;47.914;10.642;2022-10-16T16:29:15;7.50;;;3.43;;
58512;SDS011;44302;47.914;10.642;2022-10-16T16:31:41;8.03;;;2.57;;
58512;SDS011;44302;47.914;10.642;2022-10-16T16:34:08;8.47;;;2.80;;
58512;SDS011;44302;47.914;10.642;2022-10-16T16:36:34;7.17;;;2.90;;
58512;SDS011;44302;47.914;10.642;2022-10-16T16:39:00;3.30;;;2.30;;
58512;SDS011;44302;47.914;10.642;2022-10-16T16:41:27;5.60;;;2.23;;
58512;SDS011;44302;47.914;10.642;2022-10-16T16:43:55;8.37;;;2.43;;
58512;SDS011;44302;47.914;10.642;2022-10-16T16:46:30;3.77;;;2.20;;
58512;SDS011;44302;47.914;10.642;2022-10-16T16:48:57;3.03;;;1.93;;
58512;SDS011;44302;47.914;10.642;2022-10-16T16:51:24;3.13;;;2.33;;
58512;SDS011;44302;47.914;10.642;2022-10-16T16:53:50;5.13;;;2.93;;
58512;SDS011;44302;47.914;10.642;2022-10-16T16:56:18;9.23;;;3.37;;
58512;SDS011;44302;47.914;10.642;2022-10-16T16:58:50;6.50;;;3.43;;
58512;SDS011;44302;47.914;10.642;2022-10-16T17:01:18;6.93;;;3.97;;
58512;SDS011;44302;47.914;10.642;2022-10-16T17:03:45;5.17;;;3.80;;
58512;SDS011;44302;47.914;10.642;2022-10-16T17:06:11;6.30;;;4.00;;
58512;SDS011;44302;47.914;10.642;2022-10-16T17:08:38;6.80;;;4.23;;
58512;SDS011;44302;47.914;10.642;2022-10-16T17:11:04;13.97;;;7.17;;
58512;SDS011;44302;47.914;10.642;2022-10-16T17:13:31;16.60;;;8.00;;
58512;SDS011;44302;47.914;10.642;2022-10-16T17:16:02;14.23;;;7.70;;
58512;SDS011;44302;47.914;10.642;2022-10-16T17:18:30;10.33;;;6.53;;
58512;SDS011;44302;47.914;10.642;2022-10-16T17:20:59;14.10;;;7.40;;
58512;SDS011;44302;47.914;10.642;2022-10-16T17:23:26;19.50;;;10.10;;
58512;SDS011;44302;47.914;10.642;2022-10-16T17:25:52;15.67;;;9.37;;
58512;SDS011;44302;47.914;10.642;2022-10-16T17:28:18;17.33;;;9.23;;
58512;SDS011;44302;47.914;10.642;2022-10-16T17:30:44;12.47;;;8.37;;
58512;SDS011;44302;47.914;10.642;2022-10-16T17:33:10;10.57;;;6.93;;
58512;SDS011;44302;47.914;10.642;2022-10-16T17:35:38;14.00;;;7.83;;
58512;SDS011;44302;47.914;10.642;2022-10-16T17:38:05;14.17;;;8.10;;
58512;SDS011;44302;47.914;10.642;2022-10-16T17:40:31;12.80;;;8.33;;
58512;SDS011;44302;47.914;10.642;2022-10-16T17:42:57;18.10;;;8.90;;
58512;SDS011;44302;47.914;10.642;2022-10-16T17:45:23;14.10;;;8.63;;
58512;SDS011;44302;47.914;10.642;2022-10-16T17:47:49;20.83;;;10.50;;
58512;SDS011;44302;47.914;10.642;2022-10-16T17:50:14;17.27;;;10.40;;
58512;SDS011;44302;47.914;10.642;2022-10-16T17:52:40;19.37;;;10.20;;
58512;SDS011;44302;47.914;10.642;2022-10-16T17:55:06;17.83;;;10.27;;
58512;SDS011;44302;47.914;10.642;2022-10-16T17:57:32;20.47;;;11.80;;
58512;SDS011;44302;47.914;10.642;2022-10-16T17:59:58;18.70;;;11.63;;
58512;SDS011;44302;47.914;10.642;2022-10-16T18:02:26;20.40;;;11.83;;
58512;SDS011;44302;47.914;10.642;2022-10-16T18:04:52;19.70;;;12.43;;
58512;SDS011;44302;47.914;10.642;2022-10-16T18:07:19;32.47;;;16.97;;
58512;SDS011;44302;47.914;10.642;2022-10-16T18:09:45;34.87;;;16.40;;
58512;SDS011;44302;47.914;10.642;2022-10-16T18:12:11;33.10;;;15.93;;
58512;SDS011;44302;47.914;10.642;2022-10-16T18:14:38;30.43;;;14.33;;
58512;SDS011;44302;47.914;10.642;2022-10-16T18:17:04;24.40;;;12.90;;
58512;SDS011;44302;47.914;10.642;2022-10-16T18:19:30;18.70;;;10.20;;
58512;SDS011;44302;47.914;10.642;2022-10-16T18:21:55;18.63;;;10.30;;
58512;SDS011;44302;47.914;10.642;2022-10-16T18:24:21;10.23;;;5.47;;
58512;SDS011;44302;47.914;10.642;2022-10-16T18:26:49;13.03;;;7.30;;
58512;SDS011;44302;47.914;10.642;2022-10-16T18:29:17;15.57;;;6.83;;
58512;SDS011;44302;47.914;10.642;2022-10-16T18:31:43;12.13;;;6.20;;
58512;SDS011;44302;47.914;10.642;2022-10-16T18:34:09;11.03;;;5.40;;
58512;SDS011;44302;47.914;10.642;2022-10-16T18:36:34;8.27;;;4.43;;
58512;SDS011;44302;47.914;10.642;2022-10-16T18:39:03;7.30;;;4.30;;
58512;SDS011;44302;47.914;10.642;2022-10-16T18:41:35;6.80;;;4.03;;
58512;SDS011;44302;47.914;10.642;2022-10-16T18:44:04;5.07;;;3.57;;
58512;SDS011;44302;47.914;10.642;2022-10-16T18:46:30;6.00;;;3.97;;
58512;SDS011;44302;47.914;10.642;2022-10-16T18:48:56;5.70;;;3.30;;
58512;SDS011;44302;47.914;10.642;2022-10-16T18:53:51;6.67;;;3.63;;
58512;SDS011;44302;47.914;10.642;2022-10-16T18:56:19;4.50;;;3.27;;
58512;SDS011;44302;47.914;10.642;2022-10-16T18:58:46;5.20;;;3.57;;
58512;SDS011;44302;47.914;10.642;2022-10-16T19:01:14;7.50;;;4.53;;
58512;SDS011;44302;47.914;10.642;2022-10-16T19:03:44;9.27;;;6.23;;
58512;SDS011;44302;47.914;10.642;2022-10-16T19:06:11;28.53;;;16.97;;
58512;SDS011;44302;47.914;10.642;2022-10-16T19:08:39;24.93;;;13.67;;
58512;SDS011;44302;47.914;10.642;2022-10-16T19:11:12;26.50;;;16.63;;
58512;SDS011;44302;47.914;10.642;2022-10-16T19:13:40;23.97;;;15.97;;
58512;SDS011;44302;47.914;10.642;2022-10-16T19:16:17;14.57;;;9.27;;
58512;SDS011;44302;47.914;10.642;2022-10-16T19:18:44;12.67;;;8.07;;
58512;SDS011;44302;47.914;10.642;2022-10-16T19:21:10;10.50;;;6.60;;
58512;SDS011;44302;47.914;10.642;2022-10-16T19:23:37;8.67;;;5.63;;
58512;SDS011;44302;47.914;10.642;2022-10-16T19:26:07;10.90;;;8.13;;
58512;SDS011;44302;47.914;10.642;2022-10-16T19:28:38;7.40;;;5.57;;
58512;SDS011;44302;47.914;10.642;2022-10-16T19:31:05;6.33;;;3.73;;
58512;SDS011;44302;47.914;10.642;2022-10-16T19:33:32;5.13;;;3.80;;
58512;SDS011;44302;47.914;10.642;2022-10-16T19:36:33;4.03;;;3.13;;
58512;SDS011;44302;47.914;10.642;2022-10-16T19:38:53;4.13;;;3.43;;
58512;SDS011;44302;47.914;10.642;2022-10-16T19:41:20;8.80;;;3.63;;
58512;SDS011;44302;47.914;10.642;2022-10-16T19:43:48;5.53;;;3.40;;
58512;SDS011;44302;47.914;10.642;2022-10-16T19:46:23;4.57;;;3.40;;
58512;SDS011;44302;47.914;10.642;2022-10-16T19:48:56;4.90;;;2.90;;
58512;SDS011;44302;47.914;10.642;2022-10-16T19:51:24;6.73;;;2.97;;
58512;SDS011;44302;47.914;10.642;2022-10-16T19:53:54;3.43;;;2.67;;
58512;SDS011;44302;47.914;10.642;2022-10-16T19:56:26;5.70;;;2.70;;
58512;SDS011;44302;47.914;10.642;2022-10-16T19:58:54;3.77;;;2.70;;
58512;SDS011;44302;47.914;10.642;2022-10-16T20:01:21;4.37;;;2.60;;
58512;SDS011;44302;47.914;10.642;2022-10-16T20:03:48;4.80;;;2.47;;
58512;SDS011;44302;47.914;10.642;2022-10-16T20:06:14;3.73;;;2.50;;
58512;SDS011;44302;47.914;10.642;2022-10-16T20:08:42;3.97;;;2.40;;
58512;SDS011;44302;47.914;10.642;2022-10-16T20:11:14;4.07;;;2.60;;
58512;SDS011;44302;47.914;10.642;2022-10-16T20:13:41;3.70;;;2.17;;
58512;SDS011;44302;47.914;10.642;2022-10-16T20:16:08;7.23;;;2.23;;
58512;SDS011;44302;47.914;10.642;2022-10-16T20:18:35;3.87;;;2.87;;
58512;SDS011;44302;47.914;10.642;2022-10-16T20:21:01;4.27;;;2.40;;
58512;SDS011;44302;47.914;10.642;2022-10-16T20:23:32;7.10;;;2.20;;
58512;SDS011;44302;47.914;10.642;2022-10-16T20:25:59;3.50;;;2.30;;
58512;SDS011;44302;47.914;10.642;2022-10-16T20:28:25;3.10;;;2.30;;
58512;SDS011;44302;47.914;10.642;2022-10-16T20:30:50;3.90;;;2.50;;
58512;SDS011;44302;47.914;10.642;2022-10-16T20:33:16;4.17;;;1.90;;
58512;SDS011;44302;47.914;10.642;2022-10-16T20:35:44;3.17;;;2.13;;
58512;SDS011;44302;47.914;10.642;2022-10-16T20:38:12;3.43;;;2.10;;
58512;SDS011;44302;47.914;10.642;2022-10-16T20:40:39;2.83;;;2.10;;
58512;SDS011;44302;47.914;10.642;2022-10-16T20:43:09;6.20;;;2.30;;
58512;SDS011;44302;47.914;10.642;2022-10-16T20:45:37;5.47;;;2.47;;
58512;SDS011;44302;47.914;10.642;2022-10-16T20:48:03;3.40;;;2.30;;
58512;SDS011;44302;47.914;10.642;2022-10-16T20:50:29;5.83;;;2.00;;
58512;SDS011;44302;47.914;10.642;2022-10-16T20:52:56;4.30;;;1.93;;
58512;SDS011;44302;47.914;10.642;2022-10-16T20:55:23;4.37;;;2.27;;
58512;SDS011;44302;47.914;10.642;2022-10-16T20:57:48;3.53;;;2.07;;
58512;SDS011;44302;47.914;10.642;2022-10-16T21:00:14;5.67;;;2.37;;
58512;SDS011;44302;47.914;10.642;2022-10-16T21:02:40;2.60;;;1.80;;
58512;SDS011;44302;47.914;10.642;2022-10-16T21:05:06;3.33;;;1.97;;
58512;SDS011;44302;47.914;10.642;2022-10-16T21:07:31;8.20;;;2.20;;
58512;SDS011;44302;47.914;10.642;2022-10-16T21:09:57;3.90;;;2.20;;
58512;SDS011;44302;47.914;10.642;2022-10-16T21:12:23;2.57;;;2.20;;
58512;SDS011;44302;47.914;10.642;2022-10-16T21:14:50;2.07;;;1.80;;
58512;SDS011;44302;47.914;10.642;2022-10-16T21:17:16;4.40;;;2.03;;
58512;SDS011;44302;47.914;10.642;2022-10-16T21:19:42;3.07;;;1.63;;
58512;SDS011;44302;47.914;10.642;2022-10-16T21:22:08;4.03;;;1.97;;
58512;SDS011;44302;47.914;10.642;2022-10-16T21:24:34;2.17;;;1.90;;
58512;SDS011;44302;47.914;10.642;2022-10-16T21:27:01;2.17;;;1.80;;
58512;SDS011;44302;47.914;10.642;2022-10-16T21:29:27;3.57;;;2.00;;
58512;SDS011;44302;47.914;10.642;2022-10-16T21:31:53;3.20;;;1.70;;
58512;SDS011;44302;47.914;10.642;2022-10-16T21:34:18;2.17;;;1.67;;
58512;SDS011;44302;47.914;10.642;2022-10-16T21:36:44;5.70;;;1.67;;
58512;SDS011;44302;47.914;10.642;2022-10-16T21:39:11;2.57;;;1.60;;
58512;SDS011;44302;47.914;10.642;2022-10-16T21:41:39;3.20;;;1.60;;
58512;SDS011;44302;47.914;10.642;2022-10-16T21:44:05;6.17;;;1.80;;
58512;SDS011;44302;47.914;10.642;2022-10-16T21:46:32;2.73;;;1.90;;
58512;SDS011;44302;47.914;10.642;2022-10-16T21:49:00;2.83;;;1.80;;
58512;SDS011;44302;47.914;10.642;2022-10-16T21:51:30;2.07;;;1.70;;
58512;SDS011;44302;47.914;10.642;2022-10-16T21:53:58;3.47;;;1.93;;
58512;SDS011;44302;47.914;10.642;2022-10-16T21:56:25;4.63;;;1.70;;
58512;SDS011;44302;47.914;10.642;2022-10-16T21:58:51;4.30;;;1.80;;
58512;SDS011;44302;47.914;10.642;2022-10-16T22:01:18;4.63;;;1.70;;
58512;SDS011;44302;47.914;10.642;2022-10-16T22:03:45;5.23;;;1.80;;
58512;SDS011;44302;47.914;10.642;2022-10-16T22:06:13;2.50;;;1.53;;
58512;SDS011;44302;47.914;10.642;2022-10-16T22:08:40;2.03;;;1.40;;
58512;SDS011;44302;47.914;10.642;2022-10-16T22:11:07;2.40;;;1.80;;
58512;SDS011;44302;47.914;10.642;2022-10-16T22:13:35;1.80;;;1.50;;
58512;SDS011;44302;47.914;10.642;2022-10-16T22:16:02;3.90;;;1.80;;
58512;SDS011;44302;47.914;10.642;2022-10-16T22:18:28;2.03;;;1.70;;
58512;SDS011;44302;47.914;10.642;2022-10-16T22:20:55;2.50;;;1.50;;
58512;SDS011;44302;47.914;10.642;2022-10-16T22:23:20;3.17;;;1.67;;
58512;SDS011;44302;47.914;10.642;2022-10-16T22:25:46;6.67;;;2.43;;
58512;SDS011;44302;47.914;10.642;2022-10-16T22:28:12;2.47;;;1.80;;
58512;SDS011;44302;47.914;10.642;2022-10-16T22:30:38;1.63;;;1.50;;
